sensor_id;sensor_type;location;lat;lon;timestamp;P1;durP1;ratioP1;P2;durP2;ratioP2
49626;SDS011;35527;54.616;39.786;2023-12-20T00:02:26;9.10;;;5.88;;
49626;SDS011;35527;54.616;39.786;2023-12-20T00:05:28;10.02;;;6.47;;
49626;SDS011;35527;54.616;39.786;2023-12-20T00:08:31;8.93;;;6.55;;
49626;SDS011;35527;54.616;39.786;2023-12-20T00:11:37;5.05;;;2.13;;
49626;SDS011;35527;54.616;39.786;2023-12-20T00:14:41;5.85;;;2.10;;
49626;SDS011;35527;54.616;39.786;2023-12-20T00:17:48;5.35;;;2.03;;
49626;SDS011;35527;54.616;39.786;2023-12-20T00:20:51;4.82;;;2.10;;
49626;SDS011;35527;54.616;39.786;2023-12-20T00:23:55;4.93;;;2.58;;
49626;SDS011;35527;54.616;39.786;2023-12-20T00:27:02;6.45;;;2.67;;
49626;SDS011;35527;54.616;39.786;2023-12-20T00:30:05;7.68;;;2.60;;
49626;SDS011;35527;54.616;39.786;2023-12-20T00:33:08;5.28;;;2.00;;
49626;SDS011;35527;54.616;39.786;2023-12-20T00:36:11;9.10;;;6.60;;
49626;SDS011;35527;54.616;39.786;2023-12-20T00:39:20;9.57;;;6.18;;
49626;SDS011;35527;54.616;39.786;2023-12-20T00:42:23;7.90;;;3.17;;
49626;SDS011;35527;54.616;39.786;2023-12-20T00:45:25;7.78;;;3.08;;
49626;SDS011;35527;54.616;39.786;2023-12-20T00:48:30;8.02;;;2.60;;
49626;SDS011;35527;54.616;39.786;2023-12-20T00:51:42;13.10;;;9.02;;
49626;SDS011;35527;54.616;39.786;2023-12-20T00:54:47;15.43;;;10.38;;
49626;SDS011;35527;54.616;39.786;2023-12-20T00:57:51;16.02;;;9.43;;
49626;SDS011;35527;54.616;39.786;2023-12-20T01:00:56;11.65;;;4.82;;
49626;SDS011;35527;54.616;39.786;2023-12-20T01:04:02;16.77;;;10.93;;
49626;SDS011;35527;54.616;39.786;2023-12-20T01:07:05;17.85;;;5.30;;
49626;SDS011;35527;54.616;39.786;2023-12-20T01:10:08;15.35;;;10.43;;
49626;SDS011;35527;54.616;39.786;2023-12-20T01:13:13;17.10;;;11.60;;
49626;SDS011;35527;54.616;39.786;2023-12-20T01:16:21;15.45;;;11.05;;
49626;SDS011;35527;54.616;39.786;2023-12-20T01:19:25;18.25;;;11.75;;
49626;SDS011;35527;54.616;39.786;2023-12-20T01:22:30;14.98;;;10.32;;
49626;SDS011;35527;54.616;39.786;2023-12-20T01:25:34;8.15;;;3.70;;
49626;SDS011;35527;54.616;39.786;2023-12-20T01:28:40;10.65;;;4.03;;
49626;SDS011;35527;54.616;39.786;2023-12-20T01:31:44;16.02;;;10.32;;
49626;SDS011;35527;54.616;39.786;2023-12-20T01:34:47;14.70;;;9.88;;
49626;SDS011;35527;54.616;39.786;2023-12-20T01:37:52;16.58;;;11.65;;
49626;SDS011;35527;54.616;39.786;2023-12-20T01:41:02;8.65;;;3.92;;
49626;SDS011;35527;54.616;39.786;2023-12-20T01:44:05;12.38;;;3.88;;
49626;SDS011;35527;54.616;39.786;2023-12-20T01:47:08;9.68;;;4.05;;
49626;SDS011;35527;54.616;39.786;2023-12-20T01:50:12;10.07;;;4.55;;
49626;SDS011;35527;54.616;39.786;2023-12-20T01:53:20;10.02;;;4.07;;
49626;SDS011;35527;54.616;39.786;2023-12-20T01:56:28;14.93;;;10.13;;
49626;SDS011;35527;54.616;39.786;2023-12-20T01:59:32;16.73;;;10.85;;
49626;SDS011;35527;54.616;39.786;2023-12-20T02:02:37;9.07;;;3.97;;
49626;SDS011;35527;54.616;39.786;2023-12-20T02:05:44;7.82;;;3.25;;
49626;SDS011;35527;54.616;39.786;2023-12-20T02:08:50;10.88;;;4.25;;
49626;SDS011;35527;54.616;39.786;2023-12-20T02:11:53;6.55;;;2.72;;
49626;SDS011;35527;54.616;39.786;2023-12-20T02:14:58;15.68;;;11.07;;
49626;SDS011;35527;54.616;39.786;2023-12-20T02:18:03;8.77;;;3.72;;
49626;SDS011;35527;54.616;39.786;2023-12-20T02:21:09;11.57;;;3.38;;
49626;SDS011;35527;54.616;39.786;2023-12-20T02:24:11;9.55;;;3.85;;
49626;SDS011;35527;54.616;39.786;2023-12-20T02:27:17;10.45;;;3.78;;
49626;SDS011;35527;54.616;39.786;2023-12-20T02:30:24;14.13;;;9.80;;
49626;SDS011;35527;54.616;39.786;2023-12-20T02:33:29;14.02;;;9.07;;
49626;SDS011;35527;54.616;39.786;2023-12-20T02:36:32;15.35;;;10.65;;
49626;SDS011;35527;54.616;39.786;2023-12-20T02:39:34;10.13;;;3.25;;
49626;SDS011;35527;54.616;39.786;2023-12-20T02:42:40;18.98;;;10.27;;
49626;SDS011;35527;54.616;39.786;2023-12-20T02:45:43;10.57;;;4.72;;
49626;SDS011;35527;54.616;39.786;2023-12-20T02:48:48;17.15;;;10.18;;
49626;SDS011;35527;54.616;39.786;2023-12-20T02:51:50;15.88;;;10.57;;
49626;SDS011;35527;54.616;39.786;2023-12-20T02:54:56;9.40;;;4.35;;
49626;SDS011;35527;54.616;39.786;2023-12-20T02:57:59;19.70;;;11.50;;
49626;SDS011;35527;54.616;39.786;2023-12-20T03:01:02;19.13;;;12.27;;
49626;SDS011;35527;54.616;39.786;2023-12-20T03:04:07;13.82;;;6.10;;
49626;SDS011;35527;54.616;39.786;2023-12-20T03:07:11;24.15;;;14.75;;
49626;SDS011;35527;54.616;39.786;2023-12-20T03:10:15;14.13;;;5.80;;
49626;SDS011;35527;54.616;39.786;2023-12-20T03:13:21;16.88;;;5.85;;
49626;SDS011;35527;54.616;39.786;2023-12-20T03:16:24;25.02;;;15.65;;
49626;SDS011;35527;54.616;39.786;2023-12-20T03:19:27;25.73;;;15.18;;
49626;SDS011;35527;54.616;39.786;2023-12-20T03:22:35;30.83;;;17.38;;
49626;SDS011;35527;54.616;39.786;2023-12-20T03:25:39;13.80;;;5.63;;
49626;SDS011;35527;54.616;39.786;2023-12-20T03:28:43;15.18;;;6.13;;
49626;SDS011;35527;54.616;39.786;2023-12-20T03:31:49;27.05;;;16.30;;
49626;SDS011;35527;54.616;39.786;2023-12-20T03:34:52;27.73;;;16.50;;
49626;SDS011;35527;54.616;39.786;2023-12-20T03:37:56;16.42;;;6.72;;
49626;SDS011;35527;54.616;39.786;2023-12-20T03:41:06;19.35;;;6.40;;
49626;SDS011;35527;54.616;39.786;2023-12-20T03:44:18;13.00;;;4.93;;
49626;SDS011;35527;54.616;39.786;2023-12-20T03:47:24;15.45;;;6.55;;
49626;SDS011;35527;54.616;39.786;2023-12-20T03:50:27;15.77;;;7.30;;
49626;SDS011;35527;54.616;39.786;2023-12-20T03:53:33;13.57;;;5.32;;
49626;SDS011;35527;54.616;39.786;2023-12-20T03:56:37;22.00;;;7.25;;
49626;SDS011;35527;54.616;39.786;2023-12-20T03:59:40;15.75;;;6.93;;
49626;SDS011;35527;54.616;39.786;2023-12-20T04:02:43;28.50;;;17.13;;
49626;SDS011;35527;54.616;39.786;2023-12-20T04:05:50;29.17;;;17.00;;
49626;SDS011;35527;54.616;39.786;2023-12-20T04:08:53;27.30;;;16.10;;
49626;SDS011;35527;54.616;39.786;2023-12-20T04:11:57;14.77;;;6.43;;
49626;SDS011;35527;54.616;39.786;2023-12-20T04:15:00;27.77;;;16.95;;
49626;SDS011;35527;54.616;39.786;2023-12-20T04:18:06;18.90;;;8.10;;
49626;SDS011;35527;54.616;39.786;2023-12-20T04:21:09;26.63;;;17.17;;
49626;SDS011;35527;54.616;39.786;2023-12-20T04:24:13;30.45;;;17.92;;
49626;SDS011;35527;54.616;39.786;2023-12-20T04:27:16;32.30;;;17.58;;
49626;SDS011;35527;54.616;39.786;2023-12-20T04:30:20;31.83;;;18.35;;
49626;SDS011;35527;54.616;39.786;2023-12-20T04:33:24;30.80;;;18.08;;
49626;SDS011;35527;54.616;39.786;2023-12-20T04:36:29;27.75;;;17.55;;
49626;SDS011;35527;54.616;39.786;2023-12-20T04:39:34;29.23;;;8.63;;
49626;SDS011;35527;54.616;39.786;2023-12-20T04:42:40;23.35;;;9.50;;
49626;SDS011;35527;54.616;39.786;2023-12-20T04:45:43;19.60;;;8.55;;
49626;SDS011;35527;54.616;39.786;2023-12-20T04:48:46;22.05;;;8.73;;
49626;SDS011;35527;54.616;39.786;2023-12-20T04:51:49;31.75;;;18.75;;
49626;SDS011;35527;54.616;39.786;2023-12-20T04:54:55;31.65;;;19.30;;
49626;SDS011;35527;54.616;39.786;2023-12-20T04:57:58;15.50;;;7.10;;
49626;SDS011;35527;54.616;39.786;2023-12-20T05:01:03;15.52;;;5.53;;
49626;SDS011;35527;54.616;39.786;2023-12-20T05:04:07;15.43;;;6.78;;
49626;SDS011;35527;54.616;39.786;2023-12-20T05:07:11;31.25;;;18.10;;
49626;SDS011;35527;54.616;39.786;2023-12-20T05:10:17;31.05;;;18.02;;
49626;SDS011;35527;54.616;39.786;2023-12-20T05:13:20;20.45;;;7.97;;
49626;SDS011;35527;54.616;39.786;2023-12-20T05:16:23;33.40;;;20.38;;
49626;SDS011;35527;54.616;39.786;2023-12-20T05:19:27;33.83;;;20.90;;
49626;SDS011;35527;54.616;39.786;2023-12-20T05:22:30;37.83;;;21.20;;
49626;SDS011;35527;54.616;39.786;2023-12-20T05:25:33;38.85;;;20.52;;
49626;SDS011;35527;54.616;39.786;2023-12-20T05:28:36;25.08;;;8.32;;
49626;SDS011;35527;54.616;39.786;2023-12-20T05:31:39;33.30;;;19.05;;
49626;SDS011;35527;54.616;39.786;2023-12-20T05:34:46;14.52;;;6.20;;
49626;SDS011;35527;54.616;39.786;2023-12-20T05:37:49;21.27;;;7.45;;
49626;SDS011;35527;54.616;39.786;2023-12-20T05:40:54;17.52;;;6.45;;
49626;SDS011;35527;54.616;39.786;2023-12-20T05:44:01;36.22;;;21.38;;
49626;SDS011;35527;54.616;39.786;2023-12-20T05:47:04;39.45;;;21.42;;
49626;SDS011;35527;54.616;39.786;2023-12-20T05:50:08;36.65;;;21.77;;
49626;SDS011;35527;54.616;39.786;2023-12-20T05:53:11;27.80;;;8.75;;
49626;SDS011;35527;54.616;39.786;2023-12-20T05:56:15;38.35;;;21.35;;
49626;SDS011;35527;54.616;39.786;2023-12-20T05:59:21;24.63;;;9.25;;
49626;SDS011;35527;54.616;39.786;2023-12-20T06:02:24;25.88;;;9.02;;
49626;SDS011;35527;54.616;39.786;2023-12-20T06:05:30;39.90;;;20.80;;
49626;SDS011;35527;54.616;39.786;2023-12-20T06:08:35;43.22;;;22.95;;
49626;SDS011;35527;54.616;39.786;2023-12-20T06:11:43;37.40;;;21.13;;
49626;SDS011;35527;54.616;39.786;2023-12-20T06:14:45;27.25;;;9.57;;
49626;SDS011;35527;54.616;39.786;2023-12-20T06:17:51;16.65;;;6.38;;
49626;SDS011;35527;54.616;39.786;2023-12-20T06:20:57;16.33;;;6.95;;
49626;SDS011;35527;54.616;39.786;2023-12-20T06:24:05;39.47;;;21.67;;
49626;SDS011;35527;54.616;39.786;2023-12-20T06:27:10;40.50;;;22.23;;
49626;SDS011;35527;54.616;39.786;2023-12-20T06:30:16;25.75;;;10.65;;
49626;SDS011;35527;54.616;39.786;2023-12-20T06:33:20;24.67;;;8.80;;
49626;SDS011;35527;54.616;39.786;2023-12-20T06:36:25;23.92;;;9.73;;
49626;SDS011;35527;54.616;39.786;2023-12-20T06:39:32;36.28;;;19.92;;
49626;SDS011;35527;54.616;39.786;2023-12-20T06:42:36;22.55;;;8.48;;
49626;SDS011;35527;54.616;39.786;2023-12-20T06:45:41;38.67;;;21.58;;
49626;SDS011;35527;54.616;39.786;2023-12-20T06:48:44;26.48;;;10.23;;
49626;SDS011;35527;54.616;39.786;2023-12-20T06:51:49;21.40;;;8.40;;
49626;SDS011;35527;54.616;39.786;2023-12-20T06:54:54;35.28;;;18.63;;
49626;SDS011;35527;54.616;39.786;2023-12-20T06:57:57;15.80;;;6.00;;
49626;SDS011;35527;54.616;39.786;2023-12-20T07:01:04;31.88;;;7.63;;
49626;SDS011;35527;54.616;39.786;2023-12-20T07:04:08;19.05;;;6.45;;
49626;SDS011;35527;54.616;39.786;2023-12-20T07:07:13;30.58;;;16.30;;
49626;SDS011;35527;54.616;39.786;2023-12-20T07:10:17;31.20;;;18.45;;
49626;SDS011;35527;54.616;39.786;2023-12-20T07:13:20;20.15;;;7.22;;
49626;SDS011;35527;54.616;39.786;2023-12-20T07:16:26;15.70;;;6.25;;
49626;SDS011;35527;54.616;39.786;2023-12-20T07:19:29;15.43;;;6.88;;
49626;SDS011;35527;54.616;39.786;2023-12-20T07:22:33;16.17;;;6.35;;
49626;SDS011;35527;54.616;39.786;2023-12-20T07:25:36;12.45;;;6.40;;
49626;SDS011;35527;54.616;39.786;2023-12-20T07:28:40;15.30;;;5.97;;
49626;SDS011;35527;54.616;39.786;2023-12-20T07:31:43;14.13;;;5.82;;
49626;SDS011;35527;54.616;39.786;2023-12-20T07:34:46;13.85;;;5.43;;
49626;SDS011;35527;54.616;39.786;2023-12-20T07:37:50;15.10;;;6.35;;
49626;SDS011;35527;54.616;39.786;2023-12-20T07:40:54;19.88;;;6.85;;
49626;SDS011;35527;54.616;39.786;2023-12-20T07:43:57;26.73;;;16.15;;
49626;SDS011;35527;54.616;39.786;2023-12-20T07:47:01;28.60;;;16.45;;
49626;SDS011;35527;54.616;39.786;2023-12-20T07:50:04;21.75;;;8.57;;
49626;SDS011;35527;54.616;39.786;2023-12-20T07:53:09;16.42;;;6.88;;
49626;SDS011;35527;54.616;39.786;2023-12-20T07:59:19;23.55;;;16.02;;
49626;SDS011;35527;54.616;39.786;2023-12-20T08:02:26;23.85;;;15.75;;
49626;SDS011;35527;54.616;39.786;2023-12-20T08:05:34;19.13;;;7.43;;
49626;SDS011;35527;54.616;39.786;2023-12-20T08:08:37;23.27;;;15.60;;
49626;SDS011;35527;54.616;39.786;2023-12-20T08:11:44;15.95;;;7.03;;
49626;SDS011;35527;54.616;39.786;2023-12-20T08:14:48;13.55;;;6.47;;
49626;SDS011;35527;54.616;39.786;2023-12-20T08:17:52;14.90;;;5.68;;
49626;SDS011;35527;54.616;39.786;2023-12-20T08:20:56;24.50;;;15.50;;
49626;SDS011;35527;54.616;39.786;2023-12-20T08:23:59;21.45;;;14.60;;
49626;SDS011;35527;54.616;39.786;2023-12-20T08:27:04;23.15;;;15.07;;
49626;SDS011;35527;54.616;39.786;2023-12-20T08:30:08;20.00;;;14.13;;
49626;SDS011;35527;54.616;39.786;2023-12-20T08:33:12;23.55;;;15.20;;
49626;SDS011;35527;54.616;39.786;2023-12-20T08:36:17;25.63;;;16.13;;
49626;SDS011;35527;54.616;39.786;2023-12-20T08:39:20;15.88;;;6.85;;
49626;SDS011;35527;54.616;39.786;2023-12-20T08:42:23;15.73;;;5.70;;
49626;SDS011;35527;54.616;39.786;2023-12-20T08:45:30;24.58;;;14.50;;
49626;SDS011;35527;54.616;39.786;2023-12-20T08:48:33;17.08;;;8.15;;
49626;SDS011;35527;54.616;39.786;2023-12-20T08:51:38;24.40;;;14.77;;
49626;SDS011;35527;54.616;39.786;2023-12-20T08:54:44;16.67;;;6.25;;
49626;SDS011;35527;54.616;39.786;2023-12-20T08:57:47;26.38;;;15.73;;
49626;SDS011;35527;54.616;39.786;2023-12-20T09:00:52;21.33;;;14.80;;
49626;SDS011;35527;54.616;39.786;2023-12-20T09:03:55;24.58;;;15.95;;
49626;SDS011;35527;54.616;39.786;2023-12-20T09:10:05;19.42;;;14.05;;
49626;SDS011;35527;54.616;39.786;2023-12-20T09:13:11;18.42;;;13.23;;
49626;SDS011;35527;54.616;39.786;2023-12-20T09:16:15;18.63;;;13.40;;
49626;SDS011;35527;54.616;39.786;2023-12-20T09:19:20;19.13;;;13.77;;
49626;SDS011;35527;54.616;39.786;2023-12-20T09:22:23;13.95;;;5.43;;
49626;SDS011;35527;54.616;39.786;2023-12-20T09:25:30;11.68;;;5.63;;
49626;SDS011;35527;54.616;39.786;2023-12-20T09:28:34;12.60;;;5.95;;
49626;SDS011;35527;54.616;39.786;2023-12-20T09:31:39;13.23;;;6.85;;
49626;SDS011;35527;54.616;39.786;2023-12-20T09:34:42;18.55;;;12.02;;
49626;SDS011;35527;54.616;39.786;2023-12-20T09:37:47;17.27;;;11.25;;
49626;SDS011;35527;54.616;39.786;2023-12-20T09:40:51;9.32;;;4.35;;
49626;SDS011;35527;54.616;39.786;2023-12-20T09:43:58;10.05;;;4.57;;
49626;SDS011;35527;54.616;39.786;2023-12-20T09:47:06;16.20;;;11.73;;
49626;SDS011;35527;54.616;39.786;2023-12-20T09:50:11;16.10;;;11.55;;
49626;SDS011;35527;54.616;39.786;2023-12-20T09:53:17;15.63;;;10.95;;
49626;SDS011;35527;54.616;39.786;2023-12-20T09:56:21;10.18;;;5.63;;
49626;SDS011;35527;54.616;39.786;2023-12-20T09:59:27;17.50;;;11.48;;
49626;SDS011;35527;54.616;39.786;2023-12-20T10:02:33;15.95;;;10.98;;
49626;SDS011;35527;54.616;39.786;2023-12-20T10:05:41;17.45;;;11.45;;
49626;SDS011;35527;54.616;39.786;2023-12-20T10:08:47;15.40;;;5.90;;
49626;SDS011;35527;54.616;39.786;2023-12-20T10:11:54;15.00;;;11.13;;
49626;SDS011;35527;54.616;39.786;2023-12-20T10:14:57;18.45;;;11.10;;
49626;SDS011;35527;54.616;39.786;2023-12-20T10:18:02;18.10;;;12.13;;
49626;SDS011;35527;54.616;39.786;2023-12-20T10:21:06;15.10;;;6.07;;
49626;SDS011;35527;54.616;39.786;2023-12-20T10:24:17;23.45;;;14.05;;
49626;SDS011;35527;54.616;39.786;2023-12-20T10:27:22;22.90;;;9.02;;
49626;SDS011;35527;54.616;39.786;2023-12-20T10:30:28;22.13;;;13.18;;
49626;SDS011;35527;54.616;39.786;2023-12-20T10:33:36;26.30;;;14.25;;
49626;SDS011;35527;54.616;39.786;2023-12-20T10:36:40;12.70;;;5.90;;
49626;SDS011;35527;54.616;39.786;2023-12-20T10:39:47;10.23;;;5.15;;
49626;SDS011;35527;54.616;39.786;2023-12-20T10:43:00;16.65;;;10.95;;
49626;SDS011;35527;54.616;39.786;2023-12-20T10:46:04;11.23;;;5.13;;
49626;SDS011;35527;54.616;39.786;2023-12-20T10:49:13;17.50;;;9.23;;
49626;SDS011;35527;54.616;39.786;2023-12-20T10:52:18;8.82;;;4.30;;
49626;SDS011;35527;54.616;39.786;2023-12-20T10:55:21;7.97;;;3.88;;
49626;SDS011;35527;54.616;39.786;2023-12-20T10:58:26;9.68;;;3.95;;
49626;SDS011;35527;54.616;39.786;2023-12-20T11:01:30;11.88;;;4.47;;
49626;SDS011;35527;54.616;39.786;2023-12-20T11:04:44;22.70;;;10.68;;
49626;SDS011;35527;54.616;39.786;2023-12-20T11:08:17;20.60;;;10.57;;
49626;SDS011;35527;54.616;39.786;2023-12-20T11:15:07;18.50;;;9.77;;
49626;SDS011;35527;54.616;39.786;2023-12-20T11:18:10;20.52;;;9.75;;
49626;SDS011;35527;54.616;39.786;2023-12-20T11:21:14;13.27;;;6.45;;
49626;SDS011;35527;54.616;39.786;2023-12-20T11:24:21;22.35;;;7.63;;
49626;SDS011;35527;54.616;39.786;2023-12-20T11:27:27;14.50;;;6.03;;
49626;SDS011;35527;54.616;39.786;2023-12-20T11:30:40;23.48;;;12.77;;
49626;SDS011;35527;54.616;39.786;2023-12-20T11:33:50;17.15;;;4.95;;
49626;SDS011;35527;54.616;39.786;2023-12-20T11:37:04;11.63;;;4.97;;
49626;SDS011;35527;54.616;39.786;2023-12-20T11:40:11;17.05;;;5.85;;
49626;SDS011;35527;54.616;39.786;2023-12-20T11:46:42;25.38;;;15.30;;
49626;SDS011;35527;54.616;39.786;2023-12-20T11:49:46;16.08;;;6.00;;
49626;SDS011;35527;54.616;39.786;2023-12-20T11:52:52;20.92;;;6.57;;
49626;SDS011;35527;54.616;39.786;2023-12-20T11:55:57;17.00;;;5.63;;
49626;SDS011;35527;54.616;39.786;2023-12-20T11:59:01;33.53;;;16.52;;
49626;SDS011;35527;54.616;39.786;2023-12-20T12:02:11;22.10;;;7.10;;
49626;SDS011;35527;54.616;39.786;2023-12-20T12:05:15;34.95;;;7.65;;
49626;SDS011;35527;54.616;39.786;2023-12-20T12:08:18;35.35;;;16.70;;
49626;SDS011;35527;54.616;39.786;2023-12-20T12:11:23;27.55;;;7.80;;
49626;SDS011;35527;54.616;39.786;2023-12-20T12:14:29;30.92;;;15.40;;
49626;SDS011;35527;54.616;39.786;2023-12-20T12:17:31;20.40;;;5.85;;
49626;SDS011;35527;54.616;39.786;2023-12-20T12:20:39;31.25;;;15.65;;
49626;SDS011;35527;54.616;39.786;2023-12-20T12:23:45;21.40;;;6.28;;
49626;SDS011;35527;54.616;39.786;2023-12-20T12:30:00;27.38;;;14.13;;
49626;SDS011;35527;54.616;39.786;2023-12-20T12:33:06;15.63;;;4.43;;
49626;SDS011;35527;54.616;39.786;2023-12-20T12:36:13;9.95;;;4.78;;
49626;SDS011;35527;54.616;39.786;2023-12-20T12:39:19;13.55;;;4.97;;
49626;SDS011;35527;54.616;39.786;2023-12-20T12:42:22;9.55;;;3.53;;
49626;SDS011;35527;54.616;39.786;2023-12-20T12:45:29;12.57;;;4.78;;
49626;SDS011;35527;54.616;39.786;2023-12-20T12:48:34;7.05;;;3.33;;
49626;SDS011;35527;54.616;39.786;2023-12-20T12:54:41;10.68;;;5.20;;
49626;SDS011;35527;54.616;39.786;2023-12-20T12:57:45;23.13;;;14.45;;
49626;SDS011;35527;54.616;39.786;2023-12-20T13:00:52;14.00;;;5.15;;
49626;SDS011;35527;54.616;39.786;2023-12-20T13:03:56;8.95;;;3.28;;
49626;SDS011;35527;54.616;39.786;2023-12-20T13:06:59;15.25;;;4.38;;
49626;SDS011;35527;54.616;39.786;2023-12-20T13:10:02;21.25;;;11.57;;
49626;SDS011;35527;54.616;39.786;2023-12-20T13:13:10;16.63;;;9.50;;
49626;SDS011;35527;54.616;39.786;2023-12-20T13:16:13;15.02;;;8.90;;
49626;SDS011;35527;54.616;39.786;2023-12-20T13:19:16;10.20;;;3.90;;
49626;SDS011;35527;54.616;39.786;2023-12-20T13:22:21;8.85;;;4.57;;
49626;SDS011;35527;54.616;39.786;2023-12-20T13:25:27;11.10;;;3.80;;
49626;SDS011;35527;54.616;39.786;2023-12-20T13:28:31;10.68;;;3.78;;
49626;SDS011;35527;54.616;39.786;2023-12-20T13:31:33;8.63;;;3.47;;
49626;SDS011;35527;54.616;39.786;2023-12-20T13:34:38;8.98;;;3.40;;
49626;SDS011;35527;54.616;39.786;2023-12-20T13:37:51;19.38;;;9.32;;
49626;SDS011;35527;54.616;39.786;2023-12-20T13:40:54;7.67;;;3.33;;
49626;SDS011;35527;54.616;39.786;2023-12-20T13:43:59;12.18;;;4.07;;
49626;SDS011;35527;54.616;39.786;2023-12-20T13:47:05;10.68;;;4.15;;
49626;SDS011;35527;54.616;39.786;2023-12-20T13:50:09;20.77;;;4.70;;
49626;SDS011;35527;54.616;39.786;2023-12-20T13:53:15;26.50;;;12.88;;
49626;SDS011;35527;54.616;39.786;2023-12-20T13:56:18;24.77;;;13.63;;
49626;SDS011;35527;54.616;39.786;2023-12-20T13:59:23;11.32;;;4.32;;
49626;SDS011;35527;54.616;39.786;2023-12-20T14:02:26;17.88;;;6.70;;
49626;SDS011;35527;54.616;39.786;2023-12-20T14:05:29;14.13;;;5.47;;
49626;SDS011;35527;54.616;39.786;2023-12-20T14:08:36;15.60;;;4.88;;
49626;SDS011;35527;54.616;39.786;2023-12-20T14:11:42;13.93;;;4.85;;
49626;SDS011;35527;54.616;39.786;2023-12-20T14:14:45;27.33;;;12.85;;
49626;SDS011;35527;54.616;39.786;2023-12-20T14:17:48;27.25;;;13.00;;
49626;SDS011;35527;54.616;39.786;2023-12-20T14:20:51;23.23;;;6.50;;
49626;SDS011;35527;54.616;39.786;2023-12-20T14:23:58;19.25;;;6.03;;
49626;SDS011;35527;54.616;39.786;2023-12-20T14:27:03;12.93;;;6.22;;
49626;SDS011;35527;54.616;39.786;2023-12-20T14:30:10;20.65;;;5.93;;
49626;SDS011;35527;54.616;39.786;2023-12-20T14:33:13;15.05;;;5.60;;
49626;SDS011;35527;54.616;39.786;2023-12-20T14:36:17;17.42;;;10.35;;
49626;SDS011;35527;54.616;39.786;2023-12-20T14:39:29;17.25;;;9.73;;
49626;SDS011;35527;54.616;39.786;2023-12-20T14:42:35;8.25;;;3.63;;
49626;SDS011;35527;54.616;39.786;2023-12-20T14:45:40;7.03;;;3.40;;
49626;SDS011;35527;54.616;39.786;2023-12-20T14:48:46;8.38;;;3.92;;
49626;SDS011;35527;54.616;39.786;2023-12-20T14:51:50;9.15;;;4.40;;
49626;SDS011;35527;54.616;39.786;2023-12-20T14:54:53;10.05;;;3.85;;
49626;SDS011;35527;54.616;39.786;2023-12-20T14:57:55;20.05;;;11.15;;
49626;SDS011;35527;54.616;39.786;2023-12-20T15:01:01;9.55;;;4.18;;
49626;SDS011;35527;54.616;39.786;2023-12-20T15:04:09;13.68;;;5.25;;
49626;SDS011;35527;54.616;39.786;2023-12-20T15:07:13;10.25;;;4.75;;
49626;SDS011;35527;54.616;39.786;2023-12-20T15:10:16;19.80;;;11.90;;
49626;SDS011;35527;54.616;39.786;2023-12-20T15:13:25;12.23;;;4.70;;
49626;SDS011;35527;54.616;39.786;2023-12-20T15:16:31;16.25;;;6.03;;
49626;SDS011;35527;54.616;39.786;2023-12-20T15:19:35;10.27;;;3.97;;
49626;SDS011;35527;54.616;39.786;2023-12-20T15:22:40;14.60;;;5.70;;
49626;SDS011;35527;54.616;39.786;2023-12-20T15:25:47;10.15;;;4.35;;
49626;SDS011;35527;54.616;39.786;2023-12-20T15:31:53;15.60;;;6.32;;
49626;SDS011;35527;54.616;39.786;2023-12-20T15:34:56;18.20;;;5.78;;
49626;SDS011;35527;54.616;39.786;2023-12-20T15:37:59;12.15;;;5.47;;
49626;SDS011;35527;54.616;39.786;2023-12-20T15:41:10;21.50;;;5.63;;
49626;SDS011;35527;54.616;39.786;2023-12-20T15:44:46;10.93;;;5.28;;
49626;SDS011;35527;54.616;39.786;2023-12-20T15:47:51;14.68;;;5.85;;
49626;SDS011;35527;54.616;39.786;2023-12-20T15:51:19;16.45;;;6.30;;
49626;SDS011;35527;54.616;39.786;2023-12-20T15:54:23;22.95;;;14.25;;
49626;SDS011;35527;54.616;39.786;2023-12-20T15:57:30;19.83;;;7.80;;
49626;SDS011;35527;54.616;39.786;2023-12-20T16:00:37;26.95;;;15.30;;
49626;SDS011;35527;54.616;39.786;2023-12-20T16:03:41;16.45;;;7.00;;
49626;SDS011;35527;54.616;39.786;2023-12-20T16:06:48;14.13;;;6.55;;
49626;SDS011;35527;54.616;39.786;2023-12-20T16:09:54;13.95;;;5.53;;
49626;SDS011;35527;54.616;39.786;2023-12-20T16:12:57;23.42;;;14.20;;
49626;SDS011;35527;54.616;39.786;2023-12-20T16:16:09;17.63;;;6.10;;
49626;SDS011;35527;54.616;39.786;2023-12-20T16:19:17;16.23;;;6.68;;
49626;SDS011;35527;54.616;39.786;2023-12-20T16:22:19;28.58;;;16.02;;
49626;SDS011;35527;54.616;39.786;2023-12-20T16:28:30;17.52;;;7.57;;
49626;SDS011;35527;54.616;39.786;2023-12-20T16:31:33;15.23;;;6.25;;
49626;SDS011;35527;54.616;39.786;2023-12-20T16:34:36;18.13;;;6.60;;
49626;SDS011;35527;54.616;39.786;2023-12-20T16:37:41;18.55;;;7.15;;
49626;SDS011;35527;54.616;39.786;2023-12-20T16:40:49;19.48;;;7.82;;
49626;SDS011;35527;54.616;39.786;2023-12-20T16:43:55;24.70;;;8.65;;
49626;SDS011;35527;54.616;39.786;2023-12-20T16:46:59;34.38;;;15.75;;
49626;SDS011;35527;54.616;39.786;2023-12-20T16:50:02;25.88;;;14.98;;
49626;SDS011;35527;54.616;39.786;2023-12-20T16:53:11;18.25;;;7.78;;
49626;SDS011;35527;54.616;39.786;2023-12-20T16:56:17;16.42;;;6.60;;
49626;SDS011;35527;54.616;39.786;2023-12-20T16:59:20;20.90;;;7.90;;
49626;SDS011;35527;54.616;39.786;2023-12-20T17:02:23;27.80;;;16.13;;
49626;SDS011;35527;54.616;39.786;2023-12-20T17:05:27;27.70;;;16.30;;
49626;SDS011;35527;54.616;39.786;2023-12-20T17:08:31;27.38;;;16.05;;
49626;SDS011;35527;54.616;39.786;2023-12-20T17:11:36;16.83;;;6.73;;
49626;SDS011;35527;54.616;39.786;2023-12-20T17:14:40;14.20;;;5.83;;
49626;SDS011;35527;54.616;39.786;2023-12-20T17:17:44;12.98;;;5.88;;
49626;SDS011;35527;54.616;39.786;2023-12-20T17:20:49;16.67;;;6.80;;
49626;SDS011;35527;54.616;39.786;2023-12-20T17:23:53;29.27;;;16.15;;
49626;SDS011;35527;54.616;39.786;2023-12-20T17:26:56;20.95;;;7.15;;
49626;SDS011;35527;54.616;39.786;2023-12-20T17:29:59;28.45;;;16.75;;
49626;SDS011;35527;54.616;39.786;2023-12-20T17:33:05;29.05;;;16.67;;
49626;SDS011;35527;54.616;39.786;2023-12-20T17:36:11;15.07;;;6.45;;
49626;SDS011;35527;54.616;39.786;2023-12-20T17:39:18;26.13;;;15.13;;
49626;SDS011;35527;54.616;39.786;2023-12-20T17:42:22;18.02;;;7.20;;
49626;SDS011;35527;54.616;39.786;2023-12-20T17:45:28;16.38;;;7.28;;
49626;SDS011;35527;54.616;39.786;2023-12-20T17:48:31;20.63;;;6.82;;
49626;SDS011;35527;54.616;39.786;2023-12-20T17:51:38;17.30;;;7.70;;
49626;SDS011;35527;54.616;39.786;2023-12-20T17:54:41;20.35;;;8.23;;
49626;SDS011;35527;54.616;39.786;2023-12-20T17:57:52;12.35;;;5.75;;
49626;SDS011;35527;54.616;39.786;2023-12-20T18:00:56;18.55;;;7.55;;
49626;SDS011;35527;54.616;39.786;2023-12-20T18:03:59;17.38;;;7.30;;
49626;SDS011;35527;54.616;39.786;2023-12-20T18:07:05;31.25;;;17.77;;
49626;SDS011;35527;54.616;39.786;2023-12-20T18:10:10;27.73;;;16.58;;
49626;SDS011;35527;54.616;39.786;2023-12-20T18:13:15;15.00;;;6.00;;
49626;SDS011;35527;54.616;39.786;2023-12-20T18:16:20;15.55;;;6.18;;
49626;SDS011;35527;54.616;39.786;2023-12-20T18:19:23;23.57;;;10.27;;
49626;SDS011;35527;54.616;39.786;2023-12-20T18:22:26;19.20;;;8.23;;
49626;SDS011;35527;54.616;39.786;2023-12-20T18:25:29;31.75;;;9.02;;